EDT,Max TemperatureF,Mean TemperatureF,Min TemperatureF,Max Dew PointF,MeanDew PointF,Min DewpointF,Max Humidity, Mean Humidity, Min Humidity, Max Sea Level PressureIn, Mean Sea Level PressureIn, Min Sea Level PressureIn, Max VisibilityMiles, Mean VisibilityMiles, Min VisibilityMiles, Max Wind SpeedMPH, Mean Wind SpeedMPH, Max Gust SpeedMPH,PrecipitationIn, CloudCover, Events, WindDirDegrees
2012-10-1,86,80,73,77,75,71,94,82,70,29.81,29.77,29.73,10,10,8,15,8,21,0.00,3,Thunderstorm,162
2012-10-2,84,81,77,77,74,70,91,80,69,30.01,29.87,29.76,10,8,0,16,6,21,0.54,4,Fog-Rain,203
2012-10-3,83,78,73,72,70,68,93,78,63,30.19,30.12,30.01,10,9,5,8,2,12,0.10,4,Rain,293
2012-10-4,84,78,72,75,72,70,100,85,70,30.23,30.19,30.15,10,6,0,10,4,16,0.02,5,Fog-Rain-Thunderstorm,13
2012-10-5,84,80,75,73,72,71,94,82,69,30.16,30.10,30.02,10,9,5,16,6,20,T,3,Rain,46
2012-10-6,85,79,73,73,72,71,93,79,65,30.01,29.97,29.91,10,9,4,12,5,15,0.02,3,Rain,84
2012-10-7,87,78,69,73,72,67,93,75,57,30.02,29.98,29.94,10,9,1,22,5,29,0.35,2,Rain-Thunderstorm,145
2012-10-8,82,72,62,74,69,60,97,88,79,30.09,30.01,29.97,10,6,0,16,7,22,1.64,7,Fog-Rain-Thunderstorm,25
2012-10-9,65,62,58,60,57,55,100,89,78,30.15,30.10,30.06,10,6,1,14,5,16,T,7,,356
2012-10-10,78,68,58,63,59,55,100,76,52,30.16,30.11,30.06,10,6,0,10,4,15,0.00,2,Fog,312
2012-10-11,79,70,60,63,59,52,93,68,42,30.24,30.19,30.14,10,10,5,16,6,21,0.00,0,,9
2012-10-12,79,71,62,64,59,54,93,68,42,30.24,30.20,30.16,10,10,6,12,4,21,0.00,0,,77
2012-10-13,81,77,73,68,65,60,79,65,51,30.29,30.23,30.19,10,10,8,23,14,31,T,5,Rain,49
2012-10-14,84,78,71,69,67,64,84,70,55,30.20,30.13,30.04,10,10,10,17,9,24,0.02,5,Rain,94
2012-10-15,84,78,71,71,68,64,93,76,58,30.03,29.92,29.81,10,10,9,13,5,16,0.00,2,,249
2012-10-16,74,67,59,60,54,49,78,63,47,29.94,29.90,29.88,10,10,10,18,8,23,0.00,0,,20
2012-10-17,77,68,59,66,60,54,90,75,60,29.97,29.91,29.87,10,10,10,10,4,14,0.00,0,,32
2012-10-18,78,73,67,72,67,64,97,86,74,29.89,29.85,29.81,10,8,2,10,4,,0.19,4,Rain,181
2012-10-19,79,72,64,70,61,48,97,67,36,29.88,29.84,29.79,10,9,2,12,4,16,0.10,3,Rain,276
2012-10-20,78,68,58,61,49,41,90,60,29,29.97,29.90,29.86,10,10,9,12,4,17,0.00,0,,278
2012-10-21,78,67,56,61,53,48,86,61,36,30.13,30.06,29.97,10,10,10,16,6,20,0.00,0,,15
2012-10-22,76,68,60,61,57,54,90,68,46,30.20,30.15,30.10,10,10,10,17,8,22,0.00,0,,21
2012-10-23,79,70,61,67,63,57,93,77,60,30.16,30.12,30.09,10,10,10,20,9,24,0.00,1,,27
2012-10-24,82,74,66,70,67,65,93,76,58,30.13,30.08,30.04,10,10,9,20,9,25,T,2,Rain,27
2012-10-25,82,77,71,72,69,68,93,78,63,30.03,29.99,29.95,10,9,7,16,10,23,T,3,Rain,35
2012-10-26,78,74,69,70,66,58,87,73,58,29.93,29.86,29.74,10,10,10,25,15,38,0.00,5,,18
2012-10-27,73,70,67,62,60,57,81,71,61,29.71,29.63,29.58,10,10,10,21,12,31,0.00,4,,336
2012-10-28,75,66,56,58,54,47,80,63,46,29.73,29.67,29.62,10,10,10,20,10,31,0.00,1,,287
2012-10-29,64,56,48,44,37,30,71,51,30,29.79,29.73,29.65,10,10,10,22,12,30,0.00,0,,290
2012-10-30,63,54,45,32,29,24,53,38,23,29.86,29.75,29.70,10,10,10,24,14,33,0.00,0,,264
2012-10-31,70,59,47,48,37,31,67,47,27,29.96,29.90,29.84,10,10,10,21,11,31,0.00,0,,256